createdAt,value
2018-05-10T00:00:14.645Z,27.27
2018-05-10T00:04:07.867Z,28.93
2018-05-10T00:08:01.011Z,29.37
2018-05-10T00:11:54.933Z,28.23
2018-05-10T00:15:48.061Z,30.03
2018-05-10T00:19:42.672Z,31.53
2018-05-10T00:23:35.865Z,32.27
2018-05-10T00:27:28.997Z,32.53
2018-05-10T00:31:22.269Z,31.93
2018-05-10T00:35:15.409Z,32.87
2018-05-10T00:39:09.376Z,33.47
2018-05-10T00:43:02.489Z,34.40
2018-05-10T00:46:55.644Z,35.00
2018-05-10T00:50:48.789Z,34.97
2018-05-10T00:54:52.715Z,36.50
2018-05-10T00:58:45.642Z,35.47
2018-05-10T01:02:38.765Z,34.47
2018-05-10T01:06:31.884Z,34.80
2018-05-10T01:10:25.046Z,35.27
2018-05-10T01:14:18.177Z,34.33
2018-05-10T01:18:11.322Z,31.47
2018-05-10T01:22:04.484Z,34.07
2018-05-10T01:25:57.606Z,33.83
2018-05-10T01:29:50.968Z,33.60
2018-05-10T01:33:44.173Z,33.87
2018-05-10T01:37:37.286Z,33.17
2018-05-10T01:41:30.413Z,31.93
2018-05-10T01:45:34.406Z,30.77
2018-05-10T01:49:28.619Z,29.87
2018-05-10T01:53:22.560Z,29.93
2018-05-10T01:57:15.679Z,30.30
2018-05-10T02:01:08.647Z,28.77
2018-05-10T02:05:01.792Z,29.02
2018-05-10T02:08:54.916Z,29.30
2018-05-10T02:12:48.869Z,28.33
2018-05-10T02:16:41.999Z,28.13
2018-05-10T02:20:35.119Z,27.03
2018-05-10T02:24:28.899Z,25.50
2018-05-10T02:28:22.004Z,25.30
2018-05-10T02:32:15.164Z,25.20
2018-05-10T02:36:08.330Z,24.30
2018-05-10T02:40:01.478Z,24.02
2018-05-10T02:43:55.553Z,24.80
2018-05-10T02:47:48.696Z,24.00
2018-05-10T02:51:41.895Z,22.83
2018-05-10T02:55:35.943Z,19.90
2018-05-10T02:59:28.848Z,19.33
2018-05-10T03:03:23.069Z,18.63
2018-05-10T03:07:16.541Z,16.57
2018-05-10T03:11:09.687Z,16.27
2018-05-10T03:15:02.855Z,16.25
2018-05-10T03:18:56.137Z,15.07
2018-05-10T03:22:49.227Z,14.03
2018-05-10T03:26:42.502Z,14.47
2018-05-10T03:30:35.682Z,15.25
2018-05-10T03:34:28.823Z,15.87
2018-05-10T03:38:22.043Z,15.30
2018-05-10T03:42:16.013Z,13.85
2018-05-10T03:46:10.380Z,13.20
2018-05-10T03:50:03.716Z,13.65
2018-05-10T03:53:57.800Z,12.97
2018-05-10T03:57:50.360Z,13.60
2018-05-10T04:01:43.216Z,14.03
2018-05-10T04:05:48.327Z,14.93
2018-05-10T04:09:53.483Z,14.53
2018-05-10T04:13:46.630Z,14.67
2018-05-10T04:17:39.817Z,14.37
2018-05-10T04:21:33.228Z,15.20
2018-05-10T04:25:26.428Z,13.93
2018-05-10T04:29:19.687Z,15.90
2018-05-10T04:33:13.595Z,15.20
2018-05-10T04:37:06.712Z,19.83
2018-05-10T04:40:59.845Z,19.47
2018-05-10T04:44:52.976Z,18.60
2018-05-10T04:48:46.187Z,19.63
2018-05-10T04:52:39.303Z,18.47
2018-05-10T04:56:32.642Z,17.90
2018-05-10T05:00:25.545Z,18.33
2018-05-10T05:04:18.663Z,16.53
2018-05-10T05:08:11.881Z,18.80
2018-05-10T05:12:05.167Z,18.93
2018-05-10T05:15:58.253Z,16.97
2018-05-10T05:19:51.340Z,16.77
2018-05-10T05:23:45.367Z,17.27
2018-05-10T05:27:38.502Z,17.53
2018-05-10T05:31:32.465Z,17.43
2018-05-10T05:35:25.639Z,17.80
2018-05-10T05:39:19.578Z,18.23
2018-05-10T05:43:12.824Z,19.97
2018-05-10T05:47:05.860Z,19.40
2018-05-10T05:50:59.457Z,18.97
2018-05-10T05:54:52.598Z,19.10
2018-05-10T05:58:45.097Z,18.33
2018-05-10T06:02:38.249Z,17.53
2018-05-10T06:06:31.461Z,17.50
2018-05-10T06:10:24.597Z,16.80
2018-05-10T06:14:17.737Z,15.03
2018-05-10T06:18:10.896Z,15.27
2018-05-10T06:22:04.031Z,14.37
2018-05-10T06:25:57.908Z,13.63
2018-05-10T06:29:51.084Z,12.77
2018-05-10T06:33:45.026Z,13.47
2018-05-10T06:37:38.267Z,12.87
2018-05-10T06:41:31.487Z,13.43
2018-05-10T06:45:24.608Z,12.50
2018-05-10T06:49:17.775Z,12.07
2018-05-10T06:53:10.905Z,11.87
2018-05-10T06:57:04.083Z,12.80
2018-05-10T07:00:58.081Z,10.70
2018-05-10T07:04:51.414Z,10.17
2018-05-10T07:08:45.295Z,10.47
2018-05-10T07:12:38.491Z,8.97
2018-05-10T07:16:32.379Z,8.80
2018-05-10T07:20:25.520Z,8.07
2018-05-10T07:24:18.635Z,8.27
2018-05-10T07:28:11.798Z,8.57
2018-05-10T07:32:04.906Z,7.23
2018-05-10T07:35:58.178Z,7.00
2018-05-10T07:39:51.447Z,6.37
2018-05-10T07:43:44.580Z,7.13
2018-05-10T07:47:37.734Z,6.77
2018-05-10T07:51:31.017Z,6.53
2018-05-10T07:55:24.505Z,6.30
2018-05-10T07:59:18.443Z,5.75
2018-05-10T08:03:11.575Z,6.50
2018-05-10T08:07:04.680Z,6.03
2018-05-10T08:10:57.877Z,6.43
2018-05-10T08:14:51.126Z,5.33
2018-05-10T08:18:46.291Z,5.73
2018-05-10T08:22:39.370Z,6.60
2018-05-10T08:26:32.508Z,5.10
2018-05-10T08:30:25.629Z,4.63
2018-05-10T08:34:21.216Z,5.93
2018-05-10T08:38:15.151Z,6.00
2018-05-10T08:42:09.062Z,6.40
2018-05-10T08:46:02.195Z,8.23
2018-05-10T08:49:56.081Z,7.23
2018-05-10T08:53:49.992Z,7.47
2018-05-10T08:57:43.128Z,7.70
2018-05-10T09:01:36.039Z,8.23
2018-05-10T09:05:29.211Z,8.40
2018-05-10T09:09:22.342Z,9.37
2018-05-10T09:13:15.468Z,8.73
2018-05-10T09:17:09.515Z,7.47
2018-05-10T09:21:02.747Z,6.57
2018-05-10T09:24:55.912Z,5.50
2018-05-10T09:28:49.178Z,5.27
2018-05-10T09:32:43.103Z,3.57
2018-05-10T09:36:36.208Z,3.70
2018-05-10T09:40:30.098Z,3.17
2018-05-10T09:44:23.268Z,2.53
2018-05-10T09:48:19.967Z,2.90
2018-05-10T09:52:13.961Z,3.03
2018-05-10T09:56:07.216Z,4.70
2018-05-10T10:00:00.965Z,3.90
2018-05-10T10:03:59.745Z,4.70
2018-05-10T10:07:52.898Z,5.60
2018-05-10T10:11:46.091Z,3.47
2018-05-10T10:15:39.352Z,3.87
2018-05-10T10:19:33.934Z,2.43
2018-05-10T10:23:27.261Z,2.08
2018-05-10T10:27:20.511Z,2.10
2018-05-10T10:31:13.866Z,1.90
2018-05-10T10:35:07.479Z,2.00
2018-05-10T10:39:01.728Z,2.10
2018-05-10T10:42:54.832Z,2.07
2018-05-10T10:46:48.094Z,2.67
2018-05-10T10:50:41.264Z,2.90
2018-05-10T10:54:34.467Z,3.30
2018-05-10T10:58:29.264Z,3.25
2018-05-10T11:02:22.141Z,3.97
2018-05-10T11:06:24.925Z,3.73
2018-05-10T11:10:18.241Z,4.57
2018-05-10T11:14:11.388Z,5.23
2018-05-10T11:18:05.471Z,5.20
2018-05-10T11:21:58.993Z,6.17
2018-05-10T11:25:56.074Z,6.90
2018-05-10T11:29:50.059Z,7.87
2018-05-10T11:33:44.392Z,8.53
2018-05-10T11:37:37.617Z,10.23
2018-05-10T11:41:30.791Z,11.10
2018-05-10T11:45:23.973Z,12.53
2018-05-10T11:49:18.122Z,12.47
2018-05-10T11:53:12.288Z,11.93
2018-05-10T11:57:05.424Z,12.27
2018-05-10T12:00:58.544Z,12.90
2018-05-10T12:04:52.453Z,14.00
2018-05-10T12:08:45.778Z,13.40
2018-05-10T12:12:39.677Z,17.90
2018-05-10T12:16:33.541Z,16.93
2018-05-10T12:20:27.445Z,15.30
2018-05-10T12:24:21.400Z,15.47
2018-05-10T12:28:14.555Z,16.20
2018-05-10T12:32:07.695Z,16.47
2018-05-10T12:36:01.704Z,16.47
2018-05-10T12:39:54.950Z,17.90
2018-05-10T12:43:48.216Z,17.90
2018-05-10T12:47:41.322Z,17.20
2018-05-10T12:51:35.218Z,18.10
2018-05-10T12:55:29.131Z,16.53
2018-05-10T12:59:22.252Z,17.05
2018-05-10T13:03:15.660Z,17.40
2018-05-10T13:07:10.385Z,17.17
2018-05-10T13:11:03.524Z,16.43
2018-05-10T13:14:56.644Z,17.77
2018-05-10T13:18:50.590Z,16.03
2018-05-10T13:22:43.723Z,17.13
2018-05-10T13:26:36.944Z,17.27
2018-05-10T13:30:30.081Z,17.60
2018-05-10T13:34:23.229Z,17.77
2018-05-10T13:38:16.430Z,15.50
2018-05-10T13:42:09.589Z,17.67
2018-05-10T13:46:02.726Z,16.80
2018-05-10T13:49:55.894Z,18.77
2018-05-10T13:53:49.041Z,17.67
2018-05-10T13:57:42.243Z,17.53
2018-05-10T14:01:38.442Z,18.03
2018-05-10T14:05:32.316Z,18.35
2018-05-10T14:09:26.297Z,17.83
2018-05-10T14:13:20.214Z,17.77
2018-05-10T14:17:13.368Z,18.73
2018-05-10T14:21:07.315Z,19.17
2018-05-10T14:25:01.267Z,19.40
2018-05-10T14:28:54.675Z,22.37
2018-05-10T14:32:48.061Z,20.03
2018-05-10T14:36:41.171Z,17.97
2018-05-10T14:40:34.292Z,16.93
2018-05-10T14:44:27.573Z,17.63
2018-05-10T14:48:20.719Z,16.50
2018-05-10T14:52:14.000Z,16.17
2018-05-10T14:56:07.175Z,16.70
2018-05-10T15:00:00.359Z,14.43
2018-05-10T15:03:53.547Z,13.13
2018-05-10T15:07:46.690Z,10.90
2018-05-10T15:11:39.824Z,10.00
2018-05-10T15:15:33.056Z,9.93
2018-05-10T15:19:27.864Z,9.37
2018-05-10T15:23:20.978Z,8.30
2018-05-10T15:27:14.095Z,8.03
2018-05-10T15:31:07.296Z,7.03
2018-05-10T15:35:00.555Z,5.93
2018-05-10T15:38:53.670Z,5.03
2018-05-10T15:42:46.818Z,4.47
2018-05-10T15:46:40.121Z,4.17
2018-05-10T15:50:33.299Z,3.60
2018-05-10T15:54:27.177Z,4.10
2018-05-10T15:58:21.112Z,4.50
2018-05-10T16:02:14.229Z,4.23
2018-05-10T16:06:07.386Z,4.27
2018-05-10T16:10:01.396Z,3.70
2018-05-10T16:13:55.048Z,4.10
2018-05-10T16:17:48.182Z,3.77
2018-05-10T16:21:41.376Z,3.97
2018-05-10T16:25:37.268Z,3.70
2018-05-10T16:29:31.209Z,3.73
2018-05-10T16:33:24.416Z,3.27
2018-05-10T16:37:17.727Z,2.80
2018-05-10T16:41:11.601Z,3.00
2018-05-10T16:45:05.499Z,2.70
2018-05-10T16:48:58.619Z,2.40
2018-05-10T16:52:51.788Z,2.87
2018-05-10T16:56:44.888Z,4.37
2018-05-10T17:00:38.383Z,2.97
2018-05-10T17:04:32.470Z,3.60
2018-05-10T17:08:25.598Z,4.20
2018-05-10T17:12:18.735Z,5.13
2018-05-10T17:16:11.972Z,5.20
2018-05-10T17:20:05.090Z,6.03
2018-05-10T17:23:59.027Z,5.40
2018-05-10T17:27:52.133Z,5.50
2018-05-10T17:31:45.286Z,5.32
2018-05-10T17:35:38.485Z,5.17
2018-05-10T17:39:32.361Z,4.10
2018-05-10T17:43:26.227Z,4.77
2018-05-10T17:47:20.111Z,3.83
2018-05-10T17:51:13.996Z,4.13
2018-05-10T17:55:07.915Z,3.23
2018-05-10T17:59:01.032Z,3.37
2018-05-10T18:02:55.213Z,3.50
2018-05-10T18:06:48.463Z,3.93
2018-05-10T18:10:41.593Z,2.83
2018-05-10T18:14:34.710Z,2.63
2018-05-10T18:18:27.851Z,2.70
2018-05-10T18:22:21.042Z,2.33
2018-05-10T18:26:14.187Z,2.57
2018-05-10T18:30:07.340Z,2.30
2018-05-10T18:34:00.494Z,2.30
2018-05-10T18:37:53.689Z,2.30
2018-05-10T18:41:46.832Z,2.20
2018-05-10T18:45:39.990Z,2.20
2018-05-10T18:49:33.088Z,2.20
2018-05-10T18:53:26.339Z,2.20
2018-05-10T18:57:19.551Z,1.90
2018-05-10T19:01:13.438Z,2.00
2018-05-10T19:05:06.554Z,2.40
2018-05-10T19:09:00.027Z,2.30
2018-05-10T19:12:53.134Z,2.50
2018-05-10T19:16:47.111Z,1.67
2018-05-10T19:20:41.100Z,1.98
2018-05-10T19:24:34.973Z,2.10
2018-05-10T19:28:28.174Z,1.90
2018-05-10T19:32:21.303Z,1.83
2018-05-10T19:36:14.440Z,1.80
2018-05-10T19:40:07.562Z,1.57
2018-05-10T19:44:00.854Z,2.07
2018-05-10T19:47:53.985Z,2.00
2018-05-10T19:51:47.115Z,1.80
2018-05-10T19:55:41.086Z,1.87
2018-05-10T19:59:34.192Z,2.00
2018-05-10T20:03:27.373Z,2.40
2018-05-10T20:07:20.579Z,2.20
2018-05-10T20:11:13.644Z,2.10
2018-05-10T20:15:06.855Z,2.23
2018-05-10T20:18:59.957Z,2.53
2018-05-10T20:22:53.100Z,2.60
2018-05-10T20:26:46.328Z,2.30
2018-05-10T20:30:39.435Z,2.60
2018-05-10T20:34:32.691Z,2.30
2018-05-10T20:38:25.795Z,3.30
2018-05-10T20:42:18.884Z,2.13
2018-05-10T20:46:12.078Z,2.40
2018-05-10T20:50:05.252Z,2.47
2018-05-10T20:53:58.360Z,2.33
2018-05-10T20:57:51.462Z,2.20
2018-05-10T21:01:46.418Z,2.50
2018-05-10T21:05:39.613Z,2.70
2018-05-10T21:09:32.881Z,2.60
2018-05-10T21:13:26.054Z,2.90
2018-05-10T21:17:19.308Z,2.87
2018-05-10T21:21:12.424Z,3.00
2018-05-10T21:25:05.540Z,2.93
2018-05-10T21:28:59.392Z,3.60
2018-05-10T21:32:52.515Z,3.78
2018-05-10T21:36:46.694Z,3.73
2018-05-10T21:40:40.567Z,3.90
2018-05-10T21:44:33.681Z,3.30
2018-05-10T21:48:26.853Z,3.23
2018-05-10T21:52:20.013Z,3.67
2018-05-10T21:56:13.152Z,3.77
2018-05-10T22:00:06.362Z,3.60
2018-05-10T22:03:59.491Z,3.30
2018-05-10T22:07:52.620Z,3.47
2018-05-10T22:11:47.114Z,3.40
2018-05-10T22:15:42.638Z,3.93
2018-05-10T22:19:35.867Z,3.70
2018-05-10T22:23:29.068Z,3.77
2018-05-10T22:27:22.337Z,3.80
2018-05-10T22:31:16.270Z,3.87
2018-05-10T22:35:09.415Z,4.17
2018-05-10T22:39:02.541Z,4.10
2018-05-10T22:42:56.427Z,4.47
2018-05-10T22:46:49.790Z,4.12
2018-05-10T22:50:43.232Z,4.60
2018-05-10T22:54:36.492Z,4.07
2018-05-10T22:58:30.411Z,4.43
2018-05-10T23:02:23.609Z,3.67
2018-05-10T23:06:18.160Z,4.40
2018-05-10T23:10:11.182Z,4.80
2018-05-10T23:14:04.328Z,4.77
2018-05-10T23:17:57.447Z,4.53
2018-05-10T23:21:50.595Z,4.00
2018-05-10T23:25:43.734Z,3.87
2018-05-10T23:29:36.907Z,4.67
2018-05-10T23:33:29.984Z,4.80
2018-05-10T23:37:23.119Z,4.03
2018-05-10T23:41:16.244Z,3.60
2018-05-10T23:45:09.347Z,4.70
2018-05-10T23:49:02.445Z,4.37
2018-05-10T23:52:55.535Z,4.00
2018-05-10T23:56:48.723Z,4.17
